sensor_id;sensor_type;location;lat;lon;timestamp;pressure;altitude;pressure_sealevel;temperature
79053;BMP280;68451;49.510;6.026;2023-04-16T00:00:46;98345.53;;;8.58
79053;BMP280;68451;49.510;6.026;2023-04-16T00:03:13;98377.16;;;8.62
79053;BMP280;68451;49.510;6.026;2023-04-16T00:05:38;98382.19;;;8.57
79053;BMP280;68451;49.510;6.026;2023-04-16T00:08:04;98371.53;;;8.45
79053;BMP280;68451;49.510;6.026;2023-04-16T00:10:30;98337.06;;;8.17
79053;BMP280;68451;49.510;6.026;2023-04-16T00:12:55;98389.16;;;8.49
79053;BMP280;68451;49.510;6.026;2023-04-16T00:15:20;98371.34;;;8.46
79053;BMP280;68451;49.510;6.026;2023-04-16T00:17:46;98329.06;;;8.25
79053;BMP280;68451;49.510;6.026;2023-04-16T00:20:12;98332.25;;;8.20
79053;BMP280;68451;49.510;6.026;2023-04-16T00:22:37;98264.56;;;7.81
79053;BMP280;68451;49.510;6.026;2023-04-16T00:25:03;98307.63;;;8.09
79053;BMP280;68451;49.510;6.026;2023-04-16T00:27:29;98384.59;;;8.51
79053;BMP280;68451;49.510;6.026;2023-04-16T00:29:55;98386.34;;;8.38
79053;BMP280;68451;49.510;6.026;2023-04-16T00:32:20;98348.47;;;8.16
79053;BMP280;68451;49.510;6.026;2023-04-16T00:34:46;98348.06;;;8.19
79053;BMP280;68451;49.510;6.026;2023-04-16T00:37:11;98184.84;;;7.20
79053;BMP280;68451;49.510;6.026;2023-04-16T00:39:37;98389.38;;;8.54
79053;BMP280;68451;49.510;6.026;2023-04-16T00:42:02;98349.88;;;8.25
79053;BMP280;68451;49.510;6.026;2023-04-16T00:44:28;98373.56;;;8.43
79053;BMP280;68451;49.510;6.026;2023-04-16T00:46:55;98374.75;;;8.34
79053;BMP280;68451;49.510;6.026;2023-04-16T00:49:22;98341.44;;;8.09
79053;BMP280;68451;49.510;6.026;2023-04-16T00:51:47;98390.09;;;8.29
79053;BMP280;68451;49.510;6.026;2023-04-16T00:54:13;98367.03;;;8.13
79053;BMP280;68451;49.510;6.026;2023-04-16T00:56:39;98328.56;;;7.88
79053;BMP280;68451;49.510;6.026;2023-04-16T00:59:04;98362.63;;;8.06
79053;BMP280;68451;49.510;6.026;2023-04-16T01:01:30;98365.41;;;7.98
79053;BMP280;68451;49.510;6.026;2023-04-16T01:03:55;98377.00;;;7.96
79053;BMP280;68451;49.510;6.026;2023-04-16T01:06:21;98366.94;;;7.80
79053;BMP280;68451;49.510;6.026;2023-04-16T01:08:46;98345.34;;;7.79
79053;BMP280;68451;49.510;6.026;2023-04-16T01:11:14;98371.63;;;8.04
79053;BMP280;68451;49.510;6.026;2023-04-16T01:13:40;98334.34;;;7.84
79053;BMP280;68451;49.510;6.026;2023-04-16T01:16:10;98126.25;;;6.51
79053;BMP280;68451;49.510;6.026;2023-04-16T01:18:36;98398.66;;;8.09
79053;BMP280;68451;49.510;6.026;2023-04-16T01:21:03;98407.84;;;8.05
79053;BMP280;68451;49.510;6.026;2023-04-16T01:23:29;98403.84;;;8.09
79053;BMP280;68451;49.510;6.026;2023-04-16T01:25:54;98345.34;;;7.79
79053;BMP280;68451;49.510;6.026;2023-04-16T01:28:20;98372.41;;;8.04
79053;BMP280;68451;49.510;6.026;2023-04-16T01:30:45;98398.50;;;8.24
79053;BMP280;68451;49.510;6.026;2023-04-16T01:33:11;98405.72;;;8.29
79053;BMP280;68451;49.510;6.026;2023-04-16T01:35:38;98399.09;;;8.26
79053;BMP280;68451;49.510;6.026;2023-04-16T01:38:06;98390.28;;;8.21
79053;BMP280;68451;49.510;6.026;2023-04-16T01:40:32;98343.00;;;7.97
79053;BMP280;68451;49.510;6.026;2023-04-16T01:42:57;98301.28;;;7.58
79053;BMP280;68451;49.510;6.026;2023-04-16T01:45:23;98261.81;;;7.35
79053;BMP280;68451;49.510;6.026;2023-04-16T01:47:49;98304.09;;;7.63
79053;BMP280;68451;49.510;6.026;2023-04-16T01:50:16;98388.50;;;8.21
79053;BMP280;68451;49.510;6.026;2023-04-16T01:52:42;98361.78;;;7.93
79053;BMP280;68451;49.510;6.026;2023-04-16T01:55:08;98345.97;;;7.88
79053;BMP280;68451;49.510;6.026;2023-04-16T01:57:33;98390.88;;;8.16
79053;BMP280;68451;49.510;6.026;2023-04-16T01:59:59;98354.16;;;7.91
79053;BMP280;68451;49.510;6.026;2023-04-16T02:02:24;98341.34;;;7.83
79053;BMP280;68451;49.510;6.026;2023-04-16T02:04:53;98344.56;;;7.85
79053;BMP280;68451;49.510;6.026;2023-04-16T02:07:19;98401.06;;;8.11
79053;BMP280;68451;49.510;6.026;2023-04-16T02:09:45;98382.22;;;8.02
79053;BMP280;68451;49.510;6.026;2023-04-16T02:12:10;98321.72;;;7.68
79053;BMP280;68451;49.510;6.026;2023-04-16T02:14:36;98362.56;;;7.87
79053;BMP280;68451;49.510;6.026;2023-04-16T02:17:02;98356.13;;;7.76
79053;BMP280;68451;49.510;6.026;2023-04-16T02:19:27;98354.75;;;7.80
79053;BMP280;68451;49.510;6.026;2023-04-16T02:21:53;98377.78;;;7.90
79053;BMP280;68451;49.510;6.026;2023-04-16T02:24:20;98378.78;;;7.95
79053;BMP280;68451;49.510;6.026;2023-04-16T02:26:46;98382.00;;;7.97
79053;BMP280;68451;49.510;6.026;2023-04-16T02:29:12;98394.59;;;8.00
79053;BMP280;68451;49.510;6.026;2023-04-16T02:31:38;98379.75;;;7.88
79053;BMP280;68451;49.510;6.026;2023-04-16T02:34:04;98375.31;;;7.82
79053;BMP280;68451;49.510;6.026;2023-04-16T02:36:30;98370.91;;;7.76
79053;BMP280;68451;49.510;6.026;2023-04-16T02:38:57;98397.59;;;7.97
79053;BMP280;68451;49.510;6.026;2023-04-16T02:41:22;98346.06;;;7.60
79053;BMP280;68451;49.510;6.026;2023-04-16T02:43:48;98374.53;;;7.81
79053;BMP280;68451;49.510;6.026;2023-04-16T02:46:13;98387.78;;;7.99
79053;BMP280;68451;49.510;6.026;2023-04-16T02:48:39;98365.16;;;7.80
79053;BMP280;68451;49.510;6.026;2023-04-16T02:51:04;98237.28;;;6.96
79053;BMP280;68451;49.510;6.026;2023-04-16T02:53:30;98352.09;;;7.74
79053;BMP280;68451;49.510;6.026;2023-04-16T02:55:55;98402.81;;;8.04
79053;BMP280;68451;49.510;6.026;2023-04-16T02:58:23;98370.00;;;7.90
79053;BMP280;68451;49.510;6.026;2023-04-16T03:00:49;98388.41;;;8.01
79053;BMP280;68451;49.510;6.026;2023-04-16T03:03:15;98402.06;;;8.10
79053;BMP280;68451;49.510;6.026;2023-04-16T03:05:40;98383.00;;;7.96
79053;BMP280;68451;49.510;6.026;2023-04-16T03:08:06;98388.19;;;7.96
79053;BMP280;68451;49.510;6.026;2023-04-16T03:10:32;98403.41;;;7.99
79053;BMP280;68451;49.510;6.026;2023-04-16T03:12:59;98398.19;;;7.93
79053;BMP280;68451;49.510;6.026;2023-04-16T03:15:25;98371.91;;;7.75
79053;BMP280;68451;49.510;6.026;2023-04-16T03:17:52;98374.28;;;7.70
79053;BMP280;68451;49.510;6.026;2023-04-16T03:20:17;98353.31;;;7.71
79053;BMP280;68451;49.510;6.026;2023-04-16T03:22:44;98379.31;;;7.78
79053;BMP280;68451;49.510;6.026;2023-04-16T03:25:10;98381.16;;;7.84
79053;BMP280;68451;49.510;6.026;2023-04-16T03:27:36;98384.16;;;7.81
79053;BMP280;68451;49.510;6.026;2023-04-16T03:30:06;98415.22;;;8.02
79053;BMP280;68451;49.510;6.026;2023-04-16T03:32:32;98419.00;;;7.99
79053;BMP280;68451;49.510;6.026;2023-04-16T03:34:57;98434.59;;;7.99
79053;BMP280;68451;49.510;6.026;2023-04-16T03:37:23;98408.31;;;7.75
79053;BMP280;68451;49.510;6.026;2023-04-16T03:39:48;98443.78;;;7.89
79053;BMP280;68451;49.510;6.026;2023-04-16T03:42:14;98417.31;;;7.79
79053;BMP280;68451;49.510;6.026;2023-04-16T03:44:40;98413.09;;;7.71
79053;BMP280;68451;49.510;6.026;2023-04-16T03:47:05;98371.50;;;7.37
79053;BMP280;68451;49.510;6.026;2023-04-16T03:49:31;98271.69;;;6.77
79053;BMP280;68451;49.510;6.026;2023-04-16T03:51:56;98307.72;;;6.93
79053;BMP280;68451;49.510;6.026;2023-04-16T03:54:22;98439.09;;;7.78
79053;BMP280;68451;49.510;6.026;2023-04-16T03:56:48;98295.63;;;6.79
79053;BMP280;68451;49.510;6.026;2023-04-16T03:59:13;98409.19;;;7.54
79053;BMP280;68451;49.510;6.026;2023-04-16T04:01:39;98398.34;;;7.44
79053;BMP280;68451;49.510;6.026;2023-04-16T04:04:05;98396.34;;;7.46
79053;BMP280;68451;49.510;6.026;2023-04-16T04:06:30;98438.03;;;7.65
79053;BMP280;68451;49.510;6.026;2023-04-16T04:08:57;98377.06;;;7.27
79053;BMP280;68451;49.510;6.026;2023-04-16T04:11:23;98408.97;;;7.49
79053;BMP280;68451;49.510;6.026;2023-04-16T04:13:48;98287.53;;;6.61
79053;BMP280;68451;49.510;6.026;2023-04-16T04:16:14;98432.34;;;7.49
79053;BMP280;68451;49.510;6.026;2023-04-16T04:18:39;98395.00;;;7.22
79053;BMP280;68451;49.510;6.026;2023-04-16T04:21:06;98437.53;;;7.49
79053;BMP280;68451;49.510;6.026;2023-04-16T04:23:31;98297.31;;;6.59
79053;BMP280;68451;49.510;6.026;2023-04-16T04:25:57;98314.72;;;6.65
79053;BMP280;68451;49.510;6.026;2023-04-16T04:28:31;98434.22;;;7.34
79053;BMP280;68451;49.510;6.026;2023-04-16T04:30:57;98436.69;;;7.42
79053;BMP280;68451;49.510;6.026;2023-04-16T04:33:24;98405.75;;;7.19
79053;BMP280;68451;49.510;6.026;2023-04-16T04:35:50;98438.69;;;7.40
79053;BMP280;68451;49.510;6.026;2023-04-16T04:38:16;98452.91;;;7.44
79053;BMP280;68451;49.510;6.026;2023-04-16T04:40:44;98433.25;;;7.35
79053;BMP280;68451;49.510;6.026;2023-04-16T04:43:10;98434.97;;;7.28
79053;BMP280;68451;49.510;6.026;2023-04-16T04:45:36;98468.34;;;7.52
79053;BMP280;68451;49.510;6.026;2023-04-16T04:48:01;98427.34;;;7.19
79053;BMP280;68451;49.510;6.026;2023-04-16T04:50:27;98469.88;;;7.46
79053;BMP280;68451;49.510;6.026;2023-04-16T04:52:52;98473.44;;;7.39
79053;BMP280;68451;49.510;6.026;2023-04-16T04:55:18;98425.41;;;7.00
79053;BMP280;68451;49.510;6.026;2023-04-16T04:57:43;98340.66;;;6.44
79053;BMP280;68451;49.510;6.026;2023-04-16T05:00:09;98451.34;;;7.22
79053;BMP280;68451;49.510;6.026;2023-04-16T05:05:39;98446.56;;;7.25
79053;BMP280;68451;49.510;6.026;2023-04-16T05:08:05;98449.78;;;7.27
79053;BMP280;68451;49.510;6.026;2023-04-16T05:10:31;98464.34;;;7.28
79053;BMP280;68451;49.510;6.026;2023-04-16T05:12:56;98469.22;;;7.38
79053;BMP280;68451;49.510;6.026;2023-04-16T05:15:22;98440.59;;;7.03
79053;BMP280;68451;49.510;6.026;2023-04-16T05:17:47;98459.72;;;7.24
79053;BMP280;68451;49.510;6.026;2023-04-16T05:20:13;98454.34;;;7.25
79053;BMP280;68451;49.510;6.026;2023-04-16T05:22:38;98474.16;;;7.26
79053;BMP280;68451;49.510;6.026;2023-04-16T05:25:04;98470.06;;;7.17
79053;BMP280;68451;49.510;6.026;2023-04-16T05:27:30;98459.81;;;7.09
79053;BMP280;68451;49.510;6.026;2023-04-16T05:29:55;98404.09;;;6.62
79053;BMP280;68451;49.510;6.026;2023-04-16T05:32:23;98444.69;;;6.91
79053;BMP280;68451;49.510;6.026;2023-04-16T05:34:49;98497.28;;;7.21
79053;BMP280;68451;49.510;6.026;2023-04-16T05:37:14;98455.31;;;6.96
79053;BMP280;68451;49.510;6.026;2023-04-16T05:39:40;98499.81;;;7.14
79053;BMP280;68451;49.510;6.026;2023-04-16T05:42:05;98127.47;;;4.78
79053;BMP280;68451;49.510;6.026;2023-04-16T05:44:31;98520.25;;;7.24
79053;BMP280;68451;49.510;6.026;2023-04-16T05:46:56;98512.84;;;7.21
79053;BMP280;68451;49.510;6.026;2023-04-16T05:49:22;98494.69;;;7.00
79053;BMP280;68451;49.510;6.026;2023-04-16T05:51:47;98288.69;;;5.73
79053;BMP280;68451;49.510;6.026;2023-04-16T05:54:13;98435.31;;;6.69
79053;BMP280;68451;49.510;6.026;2023-04-16T05:56:39;98368.13;;;6.17
79053;BMP280;68451;49.510;6.026;2023-04-16T05:59:04;98514.91;;;7.04
79053;BMP280;68451;49.510;6.026;2023-04-16T06:01:31;98501.03;;;6.97
79053;BMP280;68451;49.510;6.026;2023-04-16T06:03:57;98522.41;;;7.14
79053;BMP280;68451;49.510;6.026;2023-04-16T06:06:22;98520.16;;;7.11
79053;BMP280;68451;49.510;6.026;2023-04-16T06:08:47;98541.59;;;7.19
79053;BMP280;68451;49.510;6.026;2023-04-16T06:11:13;98518.09;;;7.06
79053;BMP280;68451;49.510;6.026;2023-04-16T06:13:39;98523.03;;;7.01
79053;BMP280;68451;49.510;6.026;2023-04-16T06:16:04;98555.81;;;7.24
79053;BMP280;68451;49.510;6.026;2023-04-16T06:18:30;98542.78;;;7.17
79053;BMP280;68451;49.510;6.026;2023-04-16T06:20:55;98559.72;;;7.34
79053;BMP280;68451;49.510;6.026;2023-04-16T06:23:23;98565.91;;;7.33
79053;BMP280;68451;49.510;6.026;2023-04-16T06:25:48;98550.69;;;7.30
79053;BMP280;68451;49.510;6.026;2023-04-16T06:28:14;98541.81;;;7.18
79053;BMP280;68451;49.510;6.026;2023-04-16T06:30:39;98321.44;;;5.81
79053;BMP280;68451;49.510;6.026;2023-04-16T06:33:05;98541.25;;;7.23
79053;BMP280;68451;49.510;6.026;2023-04-16T06:35:30;98565.09;;;7.33
79053;BMP280;68451;49.510;6.026;2023-04-16T06:37:56;98571.16;;;7.40
79053;BMP280;68451;49.510;6.026;2023-04-16T06:40:22;98546.88;;;7.26
79053;BMP280;68451;49.510;6.026;2023-04-16T06:42:47;98534.88;;;7.04
79053;BMP280;68451;49.510;6.026;2023-04-16T06:45:13;98556.84;;;7.23
79053;BMP280;68451;49.510;6.026;2023-04-16T06:47:38;98567.22;;;7.23
79053;BMP280;68451;49.510;6.026;2023-04-16T06:50:05;98582.03;;;7.29
79053;BMP280;68451;49.510;6.026;2023-04-16T06:52:30;98572.88;;;7.33
79053;BMP280;68451;49.510;6.026;2023-04-16T06:54:56;98577.34;;;7.39
79053;BMP280;68451;49.510;6.026;2023-04-16T06:57:21;98537.97;;;7.14
79053;BMP280;68451;49.510;6.026;2023-04-16T06:59:47;98552.44;;;7.23
79053;BMP280;68451;49.510;6.026;2023-04-16T07:02:12;98408.03;;;6.37
79053;BMP280;68451;49.510;6.026;2023-04-16T07:04:38;98410.22;;;6.34
79053;BMP280;68451;49.510;6.026;2023-04-16T07:07:03;98420.47;;;6.42
79053;BMP280;68451;49.510;6.026;2023-04-16T07:09:28;98452.16;;;6.58
79053;BMP280;68451;49.510;6.026;2023-04-16T07:11:54;98551.63;;;7.23
79053;BMP280;68451;49.510;6.026;2023-04-16T07:14:19;98567.94;;;7.38
79053;BMP280;68451;49.510;6.026;2023-04-16T07:16:45;98581.84;;;7.51
79053;BMP280;68451;49.510;6.026;2023-04-16T07:19:10;98578.31;;;7.59
79053;BMP280;68451;49.510;6.026;2023-04-16T07:21:36;98548.47;;;7.48
79053;BMP280;68451;49.510;6.026;2023-04-16T07:24:02;98562.22;;;7.70
79053;BMP280;68451;49.510;6.026;2023-04-16T07:26:27;98586.28;;;8.06
79053;BMP280;68451;49.510;6.026;2023-04-16T07:28:53;98569.41;;;7.96
79053;BMP280;68451;49.510;6.026;2023-04-16T07:31:18;98591.25;;;8.01
79053;BMP280;68451;49.510;6.026;2023-04-16T07:33:44;98601.50;;;8.09
79053;BMP280;68451;49.510;6.026;2023-04-16T07:36:09;98512.91;;;7.49
79053;BMP280;68451;49.510;6.026;2023-04-16T07:38:35;98515.53;;;7.55
79053;BMP280;68451;49.510;6.026;2023-04-16T07:41:01;98592.22;;;8.00
79053;BMP280;68451;49.510;6.026;2023-04-16T07:43:26;98535.28;;;7.78
79053;BMP280;68451;49.510;6.026;2023-04-16T07:45:52;98478.69;;;7.45
79053;BMP280;68451;49.510;6.026;2023-04-16T07:48:17;98509.84;;;7.73
79053;BMP280;68451;49.510;6.026;2023-04-16T07:50:43;98603.13;;;8.38
79053;BMP280;68451;49.510;6.026;2023-04-16T07:53:08;98605.31;;;8.41
79053;BMP280;68451;49.510;6.026;2023-04-16T07:55:34;98530.69;;;8.07
79053;BMP280;68451;49.510;6.026;2023-04-16T07:58:00;98556.88;;;8.34
79053;BMP280;68451;49.510;6.026;2023-04-16T08:00:27;98508.81;;;8.30
79053;BMP280;68451;49.510;6.026;2023-04-16T08:02:53;98474.81;;;7.97
79053;BMP280;68451;49.510;6.026;2023-04-16T08:05:18;98529.41;;;8.31
79053;BMP280;68451;49.510;6.026;2023-04-16T08:07:44;98583.25;;;8.72
79053;BMP280;68451;49.510;6.026;2023-04-16T08:10:10;98593.53;;;8.86
79053;BMP280;68451;49.510;6.026;2023-04-16T08:12:35;98624.25;;;9.11
79053;BMP280;68451;49.510;6.026;2023-04-16T08:15:01;98582.72;;;8.89
79053;BMP280;68451;49.510;6.026;2023-04-16T08:17:26;98615.97;;;8.94
79053;BMP280;68451;49.510;6.026;2023-04-16T08:19:53;98435.56;;;7.92
79053;BMP280;68451;49.510;6.026;2023-04-16T08:22:19;98568.66;;;8.77
79053;BMP280;68451;49.510;6.026;2023-04-16T08:24:44;98545.97;;;8.65
79053;BMP280;68451;49.510;6.026;2023-04-16T08:27:10;98452.69;;;8.14
79053;BMP280;68451;49.510;6.026;2023-04-16T08:29:36;98439.50;;;8.16
79053;BMP280;68451;49.510;6.026;2023-04-16T08:32:02;98366.31;;;7.71
79053;BMP280;68451;49.510;6.026;2023-04-16T08:34:27;98620.09;;;9.36
79053;BMP280;68451;49.510;6.026;2023-04-16T08:36:53;98600.47;;;9.40
79053;BMP280;68451;49.510;6.026;2023-04-16T08:39:20;98635.78;;;9.75
79053;BMP280;68451;49.510;6.026;2023-04-16T08:41:46;98538.72;;;9.40
79053;BMP280;68451;49.510;6.026;2023-04-16T08:44:20;98614.72;;;10.10
79053;BMP280;68451;49.510;6.026;2023-04-16T08:46:50;98527.88;;;9.83
79053;BMP280;68451;49.510;6.026;2023-04-16T08:49:18;98457.66;;;9.75
79053;BMP280;68451;49.510;6.026;2023-04-16T08:51:49;98632.66;;;11.28
79053;BMP280;68451;49.510;6.026;2023-04-16T08:57:06;98630.69;;;11.48
79053;BMP280;68451;49.510;6.026;2023-04-16T08:59:34;98560.97;;;11.11
79053;BMP280;68451;49.510;6.026;2023-04-16T09:02:01;98551.88;;;11.20
79053;BMP280;68451;49.510;6.026;2023-04-16T09:04:27;98534.41;;;11.14
79053;BMP280;68451;49.510;6.026;2023-04-16T09:06:57;98602.91;;;11.54
79053;BMP280;68451;49.510;6.026;2023-04-16T09:09:25;98618.72;;;11.72
79053;BMP280;68451;49.510;6.026;2023-04-16T09:11:51;98554.31;;;11.15
79053;BMP280;68451;49.510;6.026;2023-04-16T09:14:18;98528.00;;;11.10
79053;BMP280;68451;49.510;6.026;2023-04-16T09:16:48;98533.88;;;11.30
79053;BMP280;68451;49.510;6.026;2023-04-16T09:19:14;98642.56;;;12.07
79053;BMP280;68451;49.510;6.026;2023-04-16T09:21:41;98594.31;;;12.03
79053;BMP280;68451;49.510;6.026;2023-04-16T09:24:07;98557.09;;;12.19
79053;BMP280;68451;49.510;6.026;2023-04-16T09:26:33;98460.38;;;12.06
79053;BMP280;68451;49.510;6.026;2023-04-16T09:29:04;98624.13;;;13.29
79053;BMP280;68451;49.510;6.026;2023-04-16T09:31:39;98534.28;;;13.04
79053;BMP280;68451;49.510;6.026;2023-04-16T09:34:15;98522.47;;;13.13
79053;BMP280;68451;49.510;6.026;2023-04-16T09:36:41;98428.59;;;12.80
79053;BMP280;68451;49.510;6.026;2023-04-16T09:39:17;98629.75;;;14.09
79053;BMP280;68451;49.510;6.026;2023-04-16T09:41:44;98626.91;;;13.99
79053;BMP280;68451;49.510;6.026;2023-04-16T09:44:12;98637.03;;;13.84
79053;BMP280;68451;49.510;6.026;2023-04-16T09:46:41;98461.91;;;12.62
79053;BMP280;68451;49.510;6.026;2023-04-16T09:49:13;98422.38;;;12.33
79053;BMP280;68451;49.510;6.026;2023-04-16T09:51:43;98461.16;;;12.43
79053;BMP280;68451;49.510;6.026;2023-04-16T09:54:09;98468.88;;;12.20
79053;BMP280;68451;49.510;6.026;2023-04-16T09:56:40;98561.09;;;12.76
79053;BMP280;68451;49.510;6.026;2023-04-16T09:59:07;98314.28;;;11.12
79053;BMP280;68451;49.510;6.026;2023-04-16T10:01:35;98563.31;;;12.73
79053;BMP280;68451;49.510;6.026;2023-04-16T10:04:00;98290.63;;;10.89
79053;BMP280;68451;49.510;6.026;2023-04-16T10:06:28;98568.19;;;12.87
79053;BMP280;68451;49.510;6.026;2023-04-16T10:08:53;98645.16;;;13.53
79053;BMP280;68451;49.510;6.026;2023-04-16T10:11:22;98521.97;;;13.05
79053;BMP280;68451;49.510;6.026;2023-04-16T10:13:48;98561.34;;;13.58
79053;BMP280;68451;49.510;6.026;2023-04-16T10:16:14;98491.94;;;13.19
79053;BMP280;68451;49.510;6.026;2023-04-16T10:18:41;98433.16;;;12.85
79053;BMP280;68451;49.510;6.026;2023-04-16T10:21:08;98467.78;;;13.17
79053;BMP280;68451;49.510;6.026;2023-04-16T10:23:37;98303.06;;;12.14
79053;BMP280;68451;49.510;6.026;2023-04-16T10:26:04;98447.66;;;12.99
79053;BMP280;68451;49.510;6.026;2023-04-16T10:28:30;98594.59;;;14.10
79053;BMP280;68451;49.510;6.026;2023-04-16T10:30:56;98626.22;;;14.27
79053;BMP280;68451;49.510;6.026;2023-04-16T10:33:26;98321.00;;;12.40
79053;BMP280;68451;49.510;6.026;2023-04-16T10:36:06;98604.66;;;14.13
79053;BMP280;68451;49.510;6.026;2023-04-16T10:38:31;98518.13;;;13.60
79053;BMP280;68451;49.510;6.026;2023-04-16T10:40:59;98517.66;;;13.63
79053;BMP280;68451;49.510;6.026;2023-04-16T10:43:27;98642.31;;;14.30
79053;BMP280;68451;49.510;6.026;2023-04-16T10:45:53;98635.56;;;14.11
79053;BMP280;68451;49.510;6.026;2023-04-16T10:48:19;98604.88;;;14.12
79053;BMP280;68451;49.510;6.026;2023-04-16T11:32:19;98630.59;;;14.96
79053;BMP280;68451;49.510;6.026;2023-04-16T11:34:48;98467.59;;;13.88
79053;BMP280;68451;49.510;6.026;2023-04-16T11:37:14;98616.78;;;14.77
79053;BMP280;68451;49.510;6.026;2023-04-16T11:39:47;98589.34;;;14.45
79053;BMP280;68451;49.510;6.026;2023-04-16T11:42:18;98630.19;;;14.64
79053;BMP280;68451;49.510;6.026;2023-04-16T11:44:43;98570.72;;;14.23
79053;BMP280;68451;49.510;6.026;2023-04-16T11:47:09;98570.94;;;14.33
79053;BMP280;68451;49.510;6.026;2023-04-16T11:49:37;98637.59;;;14.79
79053;BMP280;68451;49.510;6.026;2023-04-16T11:52:04;98634.59;;;14.87
79053;BMP280;68451;49.510;6.026;2023-04-16T11:54:29;98567.28;;;14.58
79053;BMP280;68451;49.510;6.026;2023-04-16T11:57:00;98621.56;;;14.92
79053;BMP280;68451;49.510;6.026;2023-04-16T11:59:28;98602.75;;;14.84
79053;BMP280;68451;49.510;6.026;2023-04-16T12:01:54;98445.78;;;13.87
79053;BMP280;68451;49.510;6.026;2023-04-16T12:04:24;98631.13;;;15.10
79053;BMP280;68451;49.510;6.026;2023-04-16T12:07:12;98605.19;;;15.02
79053;BMP280;68451;49.510;6.026;2023-04-16T12:09:40;98537.72;;;14.39
79053;BMP280;68451;49.510;6.026;2023-04-16T12:12:28;98583.28;;;14.45
79053;BMP280;68451;49.510;6.026;2023-04-16T12:14:55;98506.78;;;14.06
79053;BMP280;68451;49.510;6.026;2023-04-16T12:17:24;98225.81;;;12.35
79053;BMP280;68451;49.510;6.026;2023-04-16T12:20:00;98554.28;;;14.40
79053;BMP280;68451;49.510;6.026;2023-04-16T12:22:32;98536.94;;;14.27
79053;BMP280;68451;49.510;6.026;2023-04-16T12:25:02;98517.84;;;14.31
79053;BMP280;68451;49.510;6.026;2023-04-16T12:27:47;98643.72;;;14.96
79053;BMP280;68451;49.510;6.026;2023-04-16T12:30:18;98618.22;;;14.57
79053;BMP280;68451;49.510;6.026;2023-04-16T12:32:49;98613.88;;;14.51
79053;BMP280;68451;49.510;6.026;2023-04-16T12:35:30;98648.50;;;14.59
79053;BMP280;68451;49.510;6.026;2023-04-16T12:37:56;98600.09;;;14.44
79053;BMP280;68451;49.510;6.026;2023-04-16T12:40:21;98629.44;;;14.64
79053;BMP280;68451;49.510;6.026;2023-04-16T12:42:47;98627.34;;;14.66
79053;BMP280;68451;49.510;6.026;2023-04-16T12:45:12;98629.16;;;14.77
79053;BMP280;68451;49.510;6.026;2023-04-16T12:47:38;98578.81;;;14.33
79053;BMP280;68451;49.510;6.026;2023-04-16T12:50:03;98636.03;;;14.66
79053;BMP280;68451;49.510;6.026;2023-04-16T12:52:30;98612.19;;;14.45
79053;BMP280;68451;49.510;6.026;2023-04-16T12:54:55;98541.63;;;13.90
79053;BMP280;68451;49.510;6.026;2023-04-16T12:57:21;98588.31;;;14.11
79053;BMP280;68451;49.510;6.026;2023-04-16T12:59:57;98593.13;;;14.14
79053;BMP280;68451;49.510;6.026;2023-04-16T13:02:23;98568.47;;;13.92
79053;BMP280;68451;49.510;6.026;2023-04-16T13:04:50;98615.72;;;14.27
79053;BMP280;68451;49.510;6.026;2023-04-16T13:07:15;98577.16;;;13.93
79053;BMP280;68451;49.510;6.026;2023-04-16T13:09:41;98580.19;;;13.89
79053;BMP280;68451;49.510;6.026;2023-04-16T13:12:07;98603.28;;;13.99
79053;BMP280;68451;49.510;6.026;2023-04-16T13:14:32;98618.34;;;14.15
79053;BMP280;68451;49.510;6.026;2023-04-16T13:16:58;98614.22;;;14.08
79053;BMP280;68451;49.510;6.026;2023-04-16T13:19:23;98620.75;;;14.05
79053;BMP280;68451;49.510;6.026;2023-04-16T13:21:49;98635.56;;;14.11
79053;BMP280;68451;49.510;6.026;2023-04-16T13:24:14;98651.22;;;14.18
79053;BMP280;68451;49.510;6.026;2023-04-16T13:26:40;98610.00;;;13.83
79053;BMP280;68451;49.510;6.026;2023-04-16T13:29:06;98386.56;;;12.45
79053;BMP280;68451;49.510;6.026;2023-04-16T13:31:32;98629.84;;;14.03
79053;BMP280;68451;49.510;6.026;2023-04-16T13:33:57;98614.00;;;14.09
79053;BMP280;68451;49.510;6.026;2023-04-16T13:36:23;98606.47;;;14.13
79053;BMP280;68451;49.510;6.026;2023-04-16T13:38:48;98650.13;;;14.49
79053;BMP280;68451;49.510;6.026;2023-04-16T13:41:14;98605.44;;;14.25
79053;BMP280;68451;49.510;6.026;2023-04-16T13:43:39;98644.41;;;14.63
79053;BMP280;68451;49.510;6.026;2023-04-16T13:46:05;98604.53;;;14.43
79053;BMP280;68451;49.510;6.026;2023-04-16T13:48:30;98641.31;;;14.55
79053;BMP280;68451;49.510;6.026;2023-04-16T13:50:57;98640.88;;;14.46
79053;BMP280;68451;49.510;6.026;2023-04-16T13:53:22;98644.63;;;14.39
79053;BMP280;68451;49.510;6.026;2023-04-16T13:55:48;98610.38;;;14.10
79053;BMP280;68451;49.510;6.026;2023-04-16T13:58:15;98631.38;;;14.10
79053;BMP280;68451;49.510;6.026;2023-04-16T14:00:41;98593.00;;;13.74
79053;BMP280;68451;49.510;6.026;2023-04-16T14:03:07;98621.19;;;13.90
79053;BMP280;68451;49.510;6.026;2023-04-16T14:05:32;98644.94;;;13.96
79053;BMP280;68451;49.510;6.026;2023-04-16T14:07:58;98630.06;;;13.78
79053;BMP280;68451;49.510;6.026;2023-04-16T14:10:23;98617.50;;;13.80
79053;BMP280;68451;49.510;6.026;2023-04-16T14:12:49;98643.53;;;13.93
79053;BMP280;68451;49.510;6.026;2023-04-16T14:15:15;98582.13;;;13.59
79053;BMP280;68451;49.510;6.026;2023-04-16T14:17:41;98553.59;;;13.51
79053;BMP280;68451;49.510;6.026;2023-04-16T14:20:08;98609.41;;;13.93
79053;BMP280;68451;49.510;6.026;2023-04-16T14:22:34;98626.34;;;14.09
79053;BMP280;68451;49.510;6.026;2023-04-16T14:25:00;98564.81;;;13.70
79053;BMP280;68451;49.510;6.026;2023-04-16T14:27:26;98621.88;;;14.09
79053;BMP280;68451;49.510;6.026;2023-04-16T14:29:52;98498.81;;;13.31
79053;BMP280;68451;49.510;6.026;2023-04-16T14:32:17;98624.06;;;14.01
79053;BMP280;68451;49.510;6.026;2023-04-16T14:34:43;98637.19;;;14.01
79053;BMP280;68451;49.510;6.026;2023-04-16T14:37:08;98585.75;;;13.58
79053;BMP280;68451;49.510;6.026;2023-04-16T14:39:34;98615.47;;;13.70
79053;BMP280;68451;49.510;6.026;2023-04-16T14:42:00;98635.66;;;13.81
79053;BMP280;68451;49.510;6.026;2023-04-16T14:44:26;98609.16;;;13.60
79053;BMP280;68451;49.510;6.026;2023-04-16T14:46:52;98605.75;;;13.71
79053;BMP280;68451;49.510;6.026;2023-04-16T14:49:17;98616.94;;;13.78
79053;BMP280;68451;49.510;6.026;2023-04-16T14:51:44;98638.06;;;13.83
79053;BMP280;68451;49.510;6.026;2023-04-16T14:54:10;98594.78;;;13.62
79053;BMP280;68451;49.510;6.026;2023-04-16T14:56:36;98626.78;;;13.82
79053;BMP280;68451;49.510;6.026;2023-04-16T14:59:02;98626.53;;;13.72